createdAt,value
2017-04-09T00:02:03.566Z,8.8
2017-04-09T00:07:03.033Z,8.8
2017-04-09T00:12:02.713Z,8.8
2017-04-09T00:17:03.445Z,8.7
2017-04-09T00:22:03.430Z,8.6
2017-04-09T00:27:02.992Z,8.5
2017-04-09T00:32:03.662Z,8.4
2017-04-09T00:37:02.814Z,8.3
2017-04-09T00:42:03.312Z,8.2
2017-04-09T00:47:03.008Z,8.1
2017-04-09T00:52:02.591Z,8.1
2017-04-09T00:57:03.270Z,8.1
2017-04-09T01:02:03.023Z,7.9
2017-04-09T01:07:03.133Z,7.9
2017-04-09T01:12:02.697Z,7.9
2017-04-09T01:17:03.245Z,7.9
2017-04-09T01:22:03.124Z,7.8
2017-04-09T01:27:03.567Z,7.7
2017-04-09T01:32:03.032Z,7.7
2017-04-09T01:37:03.067Z,7.6
2017-04-09T01:42:02.632Z,7.5
2017-04-09T01:47:03.244Z,7.5
2017-04-09T01:52:03.044Z,7.5
2017-04-09T01:57:02.712Z,7.4
2017-04-09T02:02:03.290Z,7.2
2017-04-09T02:07:03.016Z,7.2
2017-04-09T02:12:03.679Z,7.0
2017-04-09T02:17:03.409Z,6.9
2017-04-09T02:22:02.983Z,6.8
2017-04-09T02:27:03.746Z,6.8
2017-04-09T02:32:03.013Z,6.8
2017-04-09T02:37:03.500Z,6.8
2017-04-09T02:42:02.950Z,6.8
2017-04-09T02:47:03.272Z,6.7
2017-04-09T02:52:03.487Z,6.7
2017-04-09T02:57:02.808Z,6.6
2017-04-09T03:02:03.219Z,6.5
2017-04-09T03:07:03.422Z,6.3
2017-04-09T03:12:02.805Z,6.3
2017-04-09T03:17:03.285Z,6.4
2017-04-09T03:22:03.800Z,6.3
2017-04-09T03:27:02.824Z,6.3
2017-04-09T03:32:03.149Z,6.3
2017-04-09T03:37:03.586Z,6.2
2017-04-09T03:42:02.690Z,6.1
2017-04-09T03:47:03.031Z,6.0
2017-04-09T03:52:03.191Z,6.0
2017-04-09T03:57:03.454Z,6.0
2017-04-09T04:02:03.083Z,6.0
2017-04-09T04:07:03.548Z,5.9
2017-04-09T04:12:03.482Z,5.9
2017-04-09T04:17:10.411Z,5.9
2017-04-09T04:22:03.048Z,5.8
2017-04-09T04:27:03.238Z,5.7
2017-04-09T04:32:13.825Z,5.7
2017-04-09T04:37:03.091Z,5.6
2017-04-09T04:42:03.521Z,5.6
2017-04-09T04:47:14.907Z,5.7
2017-04-09T04:52:03.310Z,5.7
2017-04-09T04:57:03.365Z,5.6
2017-04-09T05:02:13.690Z,5.7
2017-04-09T05:07:02.859Z,5.8
2017-04-09T05:12:03.151Z,5.9
2017-04-09T05:17:13.767Z,5.8
2017-04-09T05:22:03.499Z,6.0
2017-04-09T05:27:03.651Z,6.1
2017-04-09T05:32:13.117Z,6.2
2017-04-09T05:37:03.291Z,6.2
2017-04-09T05:42:03.316Z,6.6
2017-04-09T05:47:16.653Z,6.5
2017-04-09T05:52:03.186Z,6.8
2017-04-09T05:57:03.456Z,7.0
2017-04-09T06:02:17.188Z,7.3
2017-04-09T06:07:02.883Z,7.6
2017-04-09T06:12:03.469Z,8.2
2017-04-09T06:17:17.672Z,8.1
2017-04-09T06:22:03.010Z,8.4
2017-04-09T06:27:03.300Z,8.7
2017-04-09T06:32:13.832Z,9.3
2017-04-09T06:37:03.379Z,9.6
2017-04-09T06:42:03.526Z,9.6
2017-04-09T06:47:23.446Z,9.9
2017-04-09T06:52:03.368Z,10.4
2017-04-09T06:57:02.748Z,10.4
2017-04-09T07:02:17.680Z,10.7
2017-04-09T07:07:03.359Z,11.4
2017-04-09T07:12:02.824Z,11.3
2017-04-09T07:17:17.833Z,12.1
2017-04-09T07:22:03.147Z,12.4
2017-04-09T07:27:03.672Z,12.4
2017-04-09T07:32:17.899Z,13.2
2017-04-09T07:37:03.518Z,13.1
2017-04-09T07:42:02.864Z,13.9
2017-04-09T07:47:13.744Z,13.8
2017-04-09T07:52:02.701Z,14.3
2017-04-09T07:57:03.145Z,14.6
2017-04-09T08:02:14.030Z,15.3
2017-04-09T08:07:03.022Z,15.6
2017-04-09T08:12:02.781Z,15.6
2017-04-09T08:17:17.051Z,16.4
2017-04-09T08:22:03.118Z,16.3
2017-04-09T08:27:02.826Z,16.7
2017-04-09T08:32:13.389Z,17.2
2017-04-09T08:37:02.723Z,17.6
2017-04-09T08:42:03.295Z,18.6
2017-04-09T08:47:13.182Z,18.5
2017-04-09T08:52:03.582Z,19.1
2017-04-09T08:57:03.476Z,19.8
2017-04-09T09:02:16.848Z,20.2
2017-04-09T09:07:03.312Z,20.6
2017-04-09T09:12:02.710Z,21.1
2017-04-09T09:17:11.565Z,21.0
2017-04-09T09:22:03.317Z,21.4
2017-04-09T09:27:03.051Z,21.9
2017-04-09T09:32:13.137Z,22.1
2017-04-09T09:37:02.936Z,22.4
2017-04-09T09:42:02.774Z,23.2
2017-04-09T09:47:11.100Z,23.2
2017-04-09T09:52:02.933Z,23.7
2017-04-09T09:57:02.892Z,23.6
2017-04-09T10:02:12.888Z,24.5
2017-04-09T10:07:03.020Z,24.7
2017-04-09T10:12:02.766Z,24.8
2017-04-09T10:17:13.680Z,24.7
2017-04-09T10:22:03.002Z,24.8
2017-04-09T10:27:02.949Z,25.1
2017-04-09T10:32:13.709Z,25.6
2017-04-09T10:37:03.348Z,26.0
2017-04-09T10:42:03.222Z,26.4
2017-04-09T10:47:12.283Z,26.7
2017-04-09T10:52:02.800Z,26.6
2017-04-09T10:57:03.205Z,26.8
2017-04-09T11:02:13.843Z,26.6
2017-04-09T11:07:02.914Z,26.6
2017-04-09T11:12:03.398Z,26.6
2017-04-09T11:17:13.309Z,27.0
2017-04-09T11:22:02.784Z,27.4
2017-04-09T11:27:02.801Z,27.9
2017-04-09T11:32:13.712Z,27.9
2017-04-09T11:37:03.439Z,27.9
2017-04-09T11:42:02.843Z,27.5
2017-04-09T11:47:13.162Z,27.5
2017-04-09T11:52:02.970Z,27.7
2017-04-09T11:57:02.867Z,28.2
2017-04-09T12:02:12.905Z,28.7
2017-04-09T12:07:03.065Z,28.7
2017-04-09T12:12:02.690Z,29.0
2017-04-09T12:17:13.621Z,29.0
2017-04-09T12:22:03.278Z,28.9
2017-04-09T12:27:03.140Z,29.3
2017-04-09T12:32:13.240Z,30.4
2017-04-09T12:37:02.951Z,30.3
2017-04-09T12:42:03.545Z,30.0
2017-04-09T12:47:13.741Z,30.0
2017-04-09T12:52:03.238Z,30.2
2017-04-09T12:57:02.786Z,30.1
2017-04-09T13:02:13.368Z,30.5
2017-04-09T13:07:03.319Z,30.3
2017-04-09T13:12:03.189Z,30.4
2017-04-09T13:17:12.896Z,30.4
2017-04-09T13:22:02.955Z,30.4
2017-04-09T13:27:03.672Z,30.9
2017-04-09T13:32:13.511Z,31.1
2017-04-09T13:37:03.422Z,31.1
2017-04-09T13:42:03.097Z,31.0
2017-04-09T13:47:13.235Z,30.5
2017-04-09T13:52:03.215Z,30.5
2017-04-09T13:57:03.067Z,30.3
2017-04-09T14:02:12.999Z,30.3
2017-04-09T14:07:02.663Z,30.3
2017-04-09T14:12:03.540Z,30.6
2017-04-09T14:17:17.226Z,31.7
2017-04-09T14:22:02.851Z,32.1
2017-04-09T14:27:03.642Z,32.1
2017-04-09T14:32:17.422Z,32.9
2017-04-09T14:37:03.080Z,33.7
2017-04-09T14:42:03.570Z,37.4
2017-04-09T14:47:16.917Z,37.3
2017-04-09T14:52:02.761Z,42.0
2017-04-09T14:57:02.950Z,41.9
2017-04-09T15:02:13.168Z,44.7
2017-04-09T15:07:03.665Z,46.0
2017-04-09T15:12:02.818Z,45.9
2017-04-09T15:17:14.128Z,46.6
2017-04-09T15:22:03.101Z,47.2
2017-04-09T15:27:02.890Z,47.2
2017-04-09T15:32:13.220Z,49.3
2017-04-09T15:37:02.910Z,49.9
2017-04-09T15:42:03.482Z,50.0
2017-04-09T15:47:13.646Z,50.0
2017-04-09T15:52:03.269Z,49.9
2017-04-09T15:57:03.530Z,49.8
2017-04-09T16:02:14.025Z,50.2
2017-04-09T16:07:02.834Z,48.6
2017-04-09T16:12:03.549Z,48.3
2017-04-09T16:17:13.528Z,48.0
2017-04-09T16:22:03.081Z,48.0
2017-04-09T16:27:03.488Z,48.5
2017-04-09T16:32:09.249Z,48.9
2017-04-09T16:37:02.837Z,49.3
2017-04-09T16:42:03.242Z,49.0
2017-04-09T16:47:13.948Z,49.0
2017-04-09T16:52:02.944Z,47.7
2017-04-09T16:57:03.336Z,47.7
2017-04-09T17:02:13.244Z,47.5
2017-04-09T17:07:03.747Z,46.3
2017-04-09T17:12:02.963Z,45.4
2017-04-09T17:17:13.843Z,45.4
2017-04-09T17:22:03.515Z,41.5
2017-04-09T17:27:03.154Z,41.4
2017-04-09T17:32:13.949Z,40.4
2017-04-09T17:37:02.963Z,39.5
2017-04-09T17:42:03.150Z,34.7
2017-04-09T17:47:14.204Z,34.6
2017-04-09T17:52:03.545Z,31.6
2017-04-09T17:57:03.587Z,29.3
2017-04-09T18:02:14.049Z,27.6
2017-04-09T18:07:03.264Z,24.9
2017-04-09T18:12:03.573Z,24.0
2017-04-09T18:17:14.199Z,23.9
2017-04-09T18:22:03.579Z,23.4
2017-04-09T18:27:03.462Z,22.8
2017-04-09T18:32:13.876Z,22.2
2017-04-09T18:37:02.768Z,21.7
2017-04-09T18:42:03.321Z,20.9
2017-04-09T18:47:12.568Z,20.9
2017-04-09T18:52:03.081Z,20.1
2017-04-09T18:57:03.268Z,20.1
2017-04-09T19:02:06.568Z,19.9
2017-04-09T19:07:03.595Z,19.3
2017-04-09T19:12:02.991Z,19.2
2017-04-09T19:17:03.416Z,18.7
2017-04-09T19:22:03.098Z,18.6
2017-04-09T19:27:03.193Z,18.5
2017-04-09T19:32:03.386Z,18.3
2017-04-09T19:37:03.728Z,18.1
2017-04-09T19:42:03.039Z,17.7
2017-04-09T19:47:03.662Z,17.7
2017-04-09T19:52:03.525Z,17.5
2017-04-09T19:57:03.118Z,17.3
2017-04-09T20:02:05.751Z,17.0
2017-04-09T20:07:03.117Z,16.9
2017-04-09T20:12:03.082Z,16.6
2017-04-09T20:17:03.950Z,16.6
2017-04-09T20:22:03.372Z,16.5
2017-04-09T20:27:02.923Z,16.3
2017-04-09T20:32:03.500Z,16.0
2017-04-09T20:37:03.001Z,15.9
2017-04-09T20:42:03.653Z,15.6
2017-04-09T20:47:03.458Z,15.6
2017-04-09T20:52:02.784Z,15.5
2017-04-09T20:57:02.740Z,15.4
2017-04-09T21:02:03.133Z,15.1
2017-04-09T21:07:02.966Z,14.8
2017-04-09T21:12:02.821Z,14.8
2017-04-09T21:17:02.974Z,14.7
2017-04-09T21:22:03.038Z,14.4
2017-04-09T21:27:03.257Z,14.4
2017-04-09T21:32:03.031Z,14.2
2017-04-09T21:37:03.248Z,14.1
2017-04-09T21:42:03.044Z,14.0
2017-04-09T21:47:03.397Z,13.9
2017-04-09T21:52:03.455Z,13.7
2017-04-09T21:57:03.452Z,13.6
2017-04-09T22:02:03.421Z,13.4
2017-04-09T22:07:03.370Z,13.3
2017-04-09T22:12:03.133Z,13.4
2017-04-09T22:22:03.625Z,13.0
2017-04-09T22:27:02.822Z,12.9
2017-04-09T22:32:10.510Z,12.8
2017-04-09T22:37:02.834Z,12.6
2017-04-09T22:42:03.314Z,12.5
2017-04-09T22:47:03.089Z,12.2
2017-04-09T22:52:03.337Z,12.2
2017-04-09T22:57:02.789Z,12.3
2017-04-09T23:02:03.413Z,12.0
2017-04-09T23:07:03.435Z,11.9
2017-04-09T23:12:03.160Z,12.0
2017-04-09T23:17:03.034Z,11.8
2017-04-09T23:22:03.555Z,11.5
2017-04-09T23:27:03.160Z,11.4
2017-04-09T23:32:03.134Z,11.4
2017-04-09T23:37:03.417Z,11.4
2017-04-09T23:42:03.082Z,11.3
2017-04-09T23:47:03.662Z,11.2
2017-04-09T23:52:02.939Z,11.2
2017-04-09T23:57:02.613Z,11.1
